sim
Sign-in with your pilot id or email,
or register
Callsign
Passwort

Schedule Details

Flight Number: DLH2291
Departure: Brussels Airport (EBBR) at 16:45
Arrival: Munich Airport (EDDM) at 18:00
Route: Lufthansa Passenger Schedule. Enter filed route here before submitting Pirep.

Weather Information
Getting current METAR information for EBBR 231250Z 22014KT 9999 SCT038 22/11 Q1004 NOSIG
Getting current METAR information for EDDM 231250Z 25005KT 230V290 6000 SHRA SCT015 SCT020CB BKN043 18/15 Q1010 TEMPO 4000

Schedule Frequency

Route Map